createdAt,value
2018-07-10T00:00:12.322Z,15.50
2018-07-10T00:03:24.792Z,15.20
2018-07-10T00:07:14.162Z,15.10
2018-07-10T00:10:02.158Z,15.10
2018-07-10T00:12:34.331Z,15.00
2018-07-10T00:15:05.798Z,14.90
2018-07-10T00:17:37.418Z,14.80
2018-07-10T00:20:08.535Z,14.90
2018-07-10T00:22:40.366Z,15.00
2018-07-10T00:25:11.813Z,14.90
2018-07-10T00:27:43.242Z,14.80
2018-07-10T00:30:14.550Z,14.80
2018-07-10T00:32:45.658Z,14.80
2018-07-10T00:35:17.001Z,14.80
2018-07-10T00:38:57.326Z,14.80
2018-07-10T00:41:30.586Z,14.80
2018-07-10T00:44:03.059Z,14.80
2018-07-10T00:46:37.265Z,14.80
2018-07-10T00:49:08.793Z,14.80
2018-07-10T00:51:42.844Z,14.80
2018-07-10T00:54:14.070Z,14.70
2018-07-10T00:56:45.010Z,14.70
2018-07-10T00:59:16.417Z,14.70
2018-07-10T01:01:49.603Z,14.60
2018-07-10T01:04:20.532Z,14.60
2018-07-10T01:06:52.778Z,14.50
2018-07-10T01:09:24.474Z,14.40
2018-07-10T01:11:55.417Z,14.40
2018-07-10T01:14:26.446Z,14.50
2018-07-10T01:16:58.077Z,14.60
2018-07-10T01:19:29.239Z,14.60
2018-07-10T01:22:00.287Z,14.60
2018-07-10T01:24:31.705Z,14.70
2018-07-10T01:27:02.941Z,14.70
2018-07-10T01:29:39.414Z,14.70
2018-07-10T01:32:10.674Z,14.60
2018-07-10T01:34:42.306Z,14.50
2018-07-10T01:37:15.270Z,14.50
2018-07-10T01:39:46.689Z,14.50
2018-07-10T01:42:18.271Z,14.40
2018-07-10T01:44:50.179Z,14.30
2018-07-10T01:47:22.391Z,14.20
2018-07-10T01:49:54.039Z,14.10
2018-07-10T01:52:25.539Z,14.10
2018-07-10T01:54:57.271Z,14.00
2018-07-10T01:57:29.248Z,13.90
2018-07-10T02:00:00.928Z,14.10
2018-07-10T02:02:33.415Z,14.10
2018-07-10T02:05:06.495Z,14.10
2018-07-10T02:07:38.177Z,14.10
2018-07-10T02:10:09.749Z,14.10
2018-07-10T02:12:41.441Z,14.10
2018-07-10T02:15:12.791Z,14.20
2018-07-10T02:17:44.150Z,14.20
2018-07-10T02:20:16.635Z,14.10
2018-07-10T02:22:48.900Z,13.90
2018-07-10T02:25:20.723Z,13.90
2018-07-10T02:27:52.953Z,13.90
2018-07-10T02:30:24.520Z,13.70
2018-07-10T02:32:55.571Z,13.70
2018-07-10T02:35:28.659Z,13.80
2018-07-10T02:38:01.745Z,13.80
2018-07-10T02:43:04.347Z,13.80
2018-07-10T02:45:35.948Z,13.70
2018-07-10T02:48:12.247Z,13.70
2018-07-10T02:50:45.088Z,13.70
2018-07-10T02:53:16.538Z,13.70
2018-07-10T02:55:48.291Z,13.70
2018-07-10T02:58:20.335Z,13.80
2018-07-10T03:00:51.944Z,13.70
2018-07-10T03:03:23.732Z,13.80
2018-07-10T03:05:56.628Z,13.80
2018-07-10T03:08:29.567Z,13.90
2018-07-10T03:11:01.101Z,13.90
2018-07-10T03:13:33.959Z,14.00
2018-07-10T03:16:05.721Z,13.90
2018-07-10T03:18:37.013Z,13.90
2018-07-10T03:21:15.316Z,14.00
2018-07-10T03:23:46.943Z,13.90
2018-07-10T03:26:18.442Z,13.90
2018-07-10T03:28:49.779Z,13.90
2018-07-10T03:31:21.269Z,13.90
2018-07-10T03:33:53.150Z,13.90
2018-07-10T03:36:25.026Z,13.90
2018-07-10T03:38:57.659Z,13.90
2018-07-10T03:41:29.245Z,13.90
2018-07-10T03:44:01.565Z,13.90
2018-07-10T03:46:33.130Z,14.00
2018-07-10T03:49:04.787Z,14.00
2018-07-10T03:51:36.884Z,14.00
2018-07-10T03:54:08.443Z,14.00
2018-07-10T03:56:40.830Z,14.00
2018-07-10T03:59:12.935Z,14.00
2018-07-10T04:01:44.299Z,14.10
2018-07-10T04:04:17.435Z,14.00
2018-07-10T04:06:49.315Z,14.00
2018-07-10T04:09:21.271Z,14.10
2018-07-10T04:11:53.074Z,14.10
2018-07-10T04:14:27.387Z,14.10
2018-07-10T04:16:59.237Z,14.20
2018-07-10T04:19:31.156Z,14.10
2018-07-10T04:22:04.710Z,14.00
2018-07-10T04:24:38.641Z,13.80
2018-07-10T04:27:19.910Z,13.70
2018-07-10T04:29:54.236Z,13.60
2018-07-10T04:32:27.072Z,13.60
2018-07-10T04:35:00.348Z,13.60
2018-07-10T04:37:34.834Z,13.70
2018-07-10T04:40:07.359Z,13.60
2018-07-10T04:42:47.926Z,13.60
2018-07-10T04:45:21.750Z,13.60
2018-07-10T04:47:56.057Z,13.70
2018-07-10T04:50:45.935Z,13.60
2018-07-10T04:54:21.794Z,13.60
2018-07-10T04:56:59.351Z,13.60
2018-07-10T05:02:03.517Z,13.50
2018-07-10T05:04:35.502Z,13.60
2018-07-10T05:07:11.239Z,13.60
2018-07-10T05:09:44.492Z,13.70
2018-07-10T05:12:16.195Z,13.60
2018-07-10T05:14:49.847Z,13.50
2018-07-10T05:17:21.739Z,13.40
2018-07-10T05:19:53.145Z,13.50
2018-07-10T05:22:24.728Z,13.50
2018-07-10T05:24:58.335Z,13.50
2018-07-10T05:27:30.195Z,13.50
2018-07-10T05:30:01.723Z,13.60
2018-07-10T05:32:34.198Z,13.70
2018-07-10T05:35:05.610Z,13.60
2018-07-10T05:40:11.079Z,13.60
2018-07-10T05:42:49.138Z,13.50
2018-07-10T05:45:23.631Z,13.60
2018-07-10T05:48:01.223Z,13.50
2018-07-10T05:53:09.551Z,13.60
2018-07-10T05:55:47.908Z,13.70
2018-07-10T05:58:19.783Z,13.70
2018-07-10T06:00:51.614Z,13.80
2018-07-10T06:03:23.528Z,13.80
2018-07-10T06:08:26.537Z,13.90
2018-07-10T06:10:58.167Z,14.00
2018-07-10T06:13:30.045Z,14.00
2018-07-10T06:16:01.931Z,14.10
2018-07-10T06:18:33.339Z,14.10
2018-07-10T06:21:05.005Z,14.20
2018-07-10T06:23:43.331Z,14.20
2018-07-10T06:26:14.986Z,14.30
2018-07-10T06:29:05.080Z,14.20
2018-07-10T06:31:49.875Z,14.30
2018-07-10T06:34:38.486Z,14.40
2018-07-10T06:37:11.247Z,14.40
2018-07-10T06:39:42.811Z,14.30
2018-07-10T06:42:21.307Z,14.30
2018-07-10T06:47:30.139Z,14.30
2018-07-10T06:50:02.282Z,14.30
2018-07-10T06:52:33.810Z,14.30
2018-07-10T06:55:13.332Z,14.40
2018-07-10T06:57:56.550Z,14.40
2018-07-10T07:00:28.999Z,14.30
2018-07-10T07:03:03.615Z,14.40
2018-07-10T07:05:35.263Z,14.30
2018-07-10T07:08:07.012Z,14.30
2018-07-10T07:10:38.875Z,14.20
2018-07-10T07:13:10.596Z,14.20
2018-07-10T07:15:41.976Z,14.10
2018-07-10T07:18:13.658Z,14.00
2018-07-10T07:20:49.034Z,13.90
2018-07-10T07:23:20.558Z,13.80
2018-07-10T07:25:52.732Z,13.80
2018-07-10T07:28:23.931Z,13.80
2018-07-10T07:30:55.262Z,13.70
2018-07-10T07:33:26.707Z,13.60
2018-07-10T07:35:58.587Z,13.60
2018-07-10T07:38:30.121Z,13.60
2018-07-10T07:41:01.826Z,13.60
2018-07-10T07:43:35.209Z,13.70
2018-07-10T07:46:06.475Z,13.90
2018-07-10T07:48:38.334Z,13.90
2018-07-10T07:51:09.723Z,13.90
2018-07-10T07:53:41.406Z,13.90
2018-07-10T07:56:13.000Z,13.80
2018-07-10T07:58:45.970Z,13.80
2018-07-10T08:01:18.018Z,13.80
2018-07-10T08:03:49.449Z,13.80
2018-07-10T08:06:20.892Z,13.80
2018-07-10T08:08:52.155Z,13.80
2018-07-10T08:11:23.842Z,13.80
2018-07-10T08:13:55.440Z,13.80
2018-07-10T08:16:27.145Z,13.80
2018-07-10T08:18:58.955Z,13.90
2018-07-10T08:21:30.313Z,13.90
2018-07-10T08:24:02.355Z,13.80
2018-07-10T08:26:34.940Z,13.80
2018-07-10T08:29:06.507Z,13.90
2018-07-10T08:31:38.955Z,13.90
2018-07-10T08:36:41.315Z,13.90
2018-07-10T08:39:13.817Z,14.00
2018-07-10T08:41:49.846Z,14.00
2018-07-10T08:46:54.414Z,14.10
2018-07-10T08:49:29.610Z,14.00
2018-07-10T08:52:01.307Z,14.00
2018-07-10T08:54:33.199Z,13.90
2018-07-10T08:57:04.851Z,14.00
2018-07-10T08:59:36.683Z,14.20
2018-07-10T09:02:08.251Z,14.20
2018-07-10T09:04:42.117Z,14.20
2018-07-10T09:07:13.244Z,14.20
2018-07-10T09:09:44.622Z,14.40
2018-07-10T09:12:16.136Z,14.40
2018-07-10T09:14:47.532Z,14.40
2018-07-10T09:17:19.180Z,14.50
2018-07-10T09:19:50.784Z,14.40
2018-07-10T09:24:57.355Z,14.60
2018-07-10T09:27:28.929Z,14.70
2018-07-10T09:32:36.723Z,14.80
2018-07-10T09:35:08.436Z,14.80
2018-07-10T09:37:45.944Z,14.70
2018-07-10T09:40:19.042Z,14.70
2018-07-10T09:42:55.291Z,14.80
2018-07-10T09:45:35.410Z,14.80
2018-07-10T09:48:08.256Z,14.90
2018-07-10T09:50:40.119Z,14.80
2018-07-10T09:53:13.253Z,14.80
2018-07-10T09:55:45.560Z,14.80
2018-07-10T09:58:17.236Z,14.80
2018-07-10T10:00:55.459Z,14.80
2018-07-10T10:03:27.137Z,15.00
2018-07-10T10:05:59.098Z,15.10
2018-07-10T10:08:30.583Z,15.10
2018-07-10T10:11:02.692Z,15.10
2018-07-10T10:13:34.269Z,15.20
2018-07-10T10:16:09.565Z,15.20
2018-07-10T10:18:42.100Z,15.40
2018-07-10T10:21:13.481Z,15.30
2018-07-10T10:23:45.283Z,15.30
2018-07-10T10:26:18.567Z,15.10
2018-07-10T10:28:53.834Z,15.00
2018-07-10T10:31:26.380Z,15.20
2018-07-10T10:33:59.032Z,15.40
2018-07-10T10:36:31.817Z,15.40
2018-07-10T10:39:03.956Z,15.40
2018-07-10T10:41:36.967Z,15.40
2018-07-10T10:44:08.327Z,15.50
2018-07-10T10:46:43.950Z,15.50
2018-07-10T10:49:15.770Z,15.50
2018-07-10T10:51:48.746Z,15.50
2018-07-10T10:54:21.071Z,15.50
2018-07-10T10:56:52.687Z,15.50
2018-07-10T10:59:24.490Z,15.60
2018-07-10T11:01:56.850Z,15.70
2018-07-10T11:04:28.601Z,16.00
2018-07-10T11:07:00.030Z,16.20
2018-07-10T11:09:32.570Z,16.20
2018-07-10T11:12:05.549Z,16.20
2018-07-10T11:17:27.978Z,16.20
2018-07-10T11:20:05.466Z,16.20
2018-07-10T11:22:48.554Z,16.30
2018-07-10T11:25:20.607Z,16.50
2018-07-10T11:28:08.455Z,16.50
2018-07-10T11:30:40.137Z,16.40
2018-07-10T11:33:12.094Z,16.30
2018-07-10T11:35:45.267Z,16.20
2018-07-10T11:38:17.909Z,16.30
2018-07-10T11:40:49.392Z,16.40
2018-07-10T11:43:21.180Z,16.50
2018-07-10T11:45:53.168Z,16.60
2018-07-10T11:48:24.640Z,16.60
2018-07-10T11:50:56.565Z,16.60
2018-07-10T11:53:30.423Z,16.50
2018-07-10T11:56:02.463Z,16.40
2018-07-10T11:58:33.785Z,16.50
2018-07-10T12:01:05.188Z,16.50
2018-07-10T12:03:41.632Z,16.50
2018-07-10T12:06:15.920Z,16.60
2018-07-10T12:08:58.583Z,16.60
2018-07-10T12:11:31.967Z,16.50
2018-07-10T12:14:03.184Z,16.40
2018-07-10T12:16:34.695Z,16.60
2018-07-10T12:19:08.659Z,16.60
2018-07-10T12:21:40.179Z,16.70
2018-07-10T12:24:11.963Z,16.70
2018-07-10T12:26:43.588Z,16.80
2018-07-10T12:29:15.639Z,16.90
2018-07-10T12:31:48.148Z,16.90
2018-07-10T12:34:20.005Z,16.90
2018-07-10T12:36:52.155Z,17.00
2018-07-10T12:39:23.323Z,17.00
2018-07-10T12:41:54.880Z,17.10
2018-07-10T12:44:27.919Z,17.10
2018-07-10T12:46:59.187Z,16.80
2018-07-10T12:49:30.602Z,16.80
2018-07-10T12:52:02.415Z,17.00
2018-07-10T12:54:33.763Z,17.20
2018-07-10T12:57:06.200Z,17.50
2018-07-10T12:59:38.182Z,17.60
2018-07-10T13:02:18.928Z,17.90
2018-07-10T13:04:51.115Z,18.10
2018-07-10T13:07:22.764Z,18.20
2018-07-10T13:09:55.722Z,18.40
2018-07-10T13:12:27.488Z,18.50
2018-07-10T13:14:59.272Z,18.70
2018-07-10T13:17:32.272Z,18.70
2018-07-10T13:20:07.648Z,18.70
2018-07-10T13:22:39.211Z,18.70
2018-07-10T13:25:13.984Z,18.50
2018-07-10T13:27:46.481Z,18.40
2018-07-10T13:30:17.971Z,18.40
2018-07-10T13:32:49.933Z,18.40
2018-07-10T13:35:21.458Z,18.40
2018-07-10T13:37:52.971Z,18.50
2018-07-10T13:40:24.575Z,18.60
2018-07-10T13:43:00.319Z,18.70
2018-07-10T13:45:32.463Z,18.80
2018-07-10T13:48:04.028Z,18.80
2018-07-10T13:50:36.221Z,18.80
2018-07-10T13:53:07.773Z,18.90
2018-07-10T13:55:43.140Z,19.30
2018-07-10T13:58:15.532Z,19.70
2018-07-10T14:06:57.583Z,21.30
2018-07-10T14:12:39.456Z,21.30
2018-07-10T14:15:10.705Z,21.50
2018-07-10T14:17:44.492Z,21.90
2018-07-10T14:20:17.232Z,22.10
2018-07-10T14:22:48.611Z,22.30
2018-07-10T14:25:20.233Z,22.40
2018-07-10T14:27:51.685Z,22.50
2018-07-10T14:30:23.083Z,22.70
2018-07-10T14:32:58.956Z,22.80
2018-07-10T14:35:31.146Z,22.70
2018-07-10T14:38:06.685Z,22.50
2018-07-10T14:40:43.092Z,22.40
2018-07-10T14:43:18.774Z,22.10
2018-07-10T14:45:51.336Z,21.90
2018-07-10T14:48:24.713Z,21.90
2018-07-10T14:50:58.034Z,22.20
2018-07-10T14:53:29.426Z,22.40
2018-07-10T14:56:01.471Z,22.60
2018-07-10T14:58:33.119Z,22.80
2018-07-10T15:01:04.542Z,23.20
2018-07-10T15:03:38.556Z,23.40
2018-07-10T15:06:09.842Z,23.30
2018-07-10T15:08:41.338Z,23.40
2018-07-10T15:11:12.690Z,23.40
2018-07-10T15:13:54.299Z,23.40
2018-07-10T15:16:32.213Z,23.00
2018-07-10T15:19:03.884Z,22.70
2018-07-10T15:21:35.366Z,22.30
2018-07-10T15:24:09.247Z,21.90
2018-07-10T15:26:40.721Z,21.60
2018-07-10T15:29:15.973Z,21.50
2018-07-10T15:31:49.362Z,21.50
2018-07-10T15:35:16.095Z,21.70
2018-07-10T15:37:49.563Z,21.80
2018-07-10T15:40:23.608Z,21.60
2018-07-10T15:43:01.993Z,21.30
2018-07-10T15:45:33.600Z,20.70
2018-07-10T15:48:05.610Z,20.50
2018-07-10T15:50:36.900Z,20.40
2018-07-10T15:53:08.716Z,20.10
2018-07-10T15:55:39.957Z,19.70
2018-07-10T15:58:12.203Z,19.50
2018-07-10T16:00:45.830Z,19.30
2018-07-10T16:03:17.353Z,19.10
2018-07-10T16:05:55.211Z,19.10
2018-07-10T16:08:26.767Z,19.20
2018-07-10T16:11:06.023Z,19.20
2018-07-10T16:13:41.014Z,19.50
2018-07-10T16:16:15.553Z,19.80
2018-07-10T16:18:51.165Z,20.00
2018-07-10T16:21:22.745Z,20.00
2018-07-10T16:23:54.165Z,19.80
2018-07-10T16:26:25.720Z,19.60
2018-07-10T16:28:57.326Z,19.50
2018-07-10T16:31:28.871Z,19.40
2018-07-10T16:34:00.614Z,19.70
2018-07-10T16:36:32.602Z,19.90
2018-07-10T16:39:04.194Z,19.90
2018-07-10T16:41:41.575Z,19.90
2018-07-10T16:44:13.650Z,20.00
2018-07-10T16:46:50.114Z,20.10
2018-07-10T16:49:30.225Z,20.00
2018-07-10T16:52:13.767Z,19.90
2018-07-10T16:54:45.388Z,20.00
2018-07-10T16:57:21.694Z,20.20
2018-07-10T16:59:53.274Z,20.20
2018-07-10T17:02:24.825Z,20.10
2018-07-10T17:04:56.415Z,20.00
2018-07-10T17:07:27.876Z,19.90
2018-07-10T17:10:00.002Z,19.90
2018-07-10T17:12:31.540Z,19.80
2018-07-10T17:15:02.947Z,19.80
2018-07-10T17:17:36.617Z,19.90
2018-07-10T17:20:14.611Z,19.80
2018-07-10T17:22:46.863Z,19.80
2018-07-10T17:25:19.144Z,19.60
2018-07-10T17:27:52.157Z,19.40
2018-07-10T17:30:23.520Z,19.30
2018-07-10T17:32:59.474Z,19.30
2018-07-10T17:35:31.229Z,19.30
2018-07-10T17:38:07.368Z,19.30
2018-07-10T17:40:40.326Z,19.30
2018-07-10T17:43:11.833Z,19.30
2018-07-10T17:45:44.018Z,19.20
2018-07-10T17:48:19.835Z,19.10
2018-07-10T17:50:55.750Z,19.00
2018-07-10T17:53:31.115Z,18.90
2018-07-10T17:56:06.234Z,18.80
2018-07-10T17:58:40.793Z,18.80
2018-07-10T18:01:21.979Z,18.70
2018-07-10T18:05:01.954Z,18.60
2018-07-10T18:07:38.413Z,18.50
2018-07-10T18:10:22.155Z,18.20
2018-07-10T18:13:21.775Z,18.10
2018-07-10T18:16:12.805Z,18.00
2018-07-10T18:18:53.577Z,18.10
2018-07-10T18:21:39.482Z,18.00
2018-07-10T18:24:31.778Z,17.80
2018-07-10T18:27:20.264Z,17.70
2018-07-10T18:30:14.277Z,17.50
2018-07-10T18:33:02.282Z,17.50
2018-07-10T18:35:56.347Z,17.40
2018-07-10T18:38:28.554Z,17.50
2018-07-10T18:41:09.892Z,17.50
2018-07-10T18:43:49.369Z,17.40
2018-07-10T18:46:38.836Z,17.30
2018-07-10T18:49:47.721Z,17.40
2018-07-10T18:56:50.514Z,17.30
2018-07-10T18:59:36.112Z,17.20
2018-07-10T19:05:27.690Z,17.10
2018-07-10T19:14:43.022Z,16.80
2018-07-10T19:17:36.339Z,16.80
2018-07-10T19:20:22.299Z,16.80
2018-07-10T19:23:46.983Z,16.80
2018-07-10T19:26:35.266Z,16.80
2018-07-10T19:29:45.783Z,16.70
2018-07-10T19:32:37.323Z,16.70
2018-07-10T19:35:22.239Z,16.80
2018-07-10T19:37:57.492Z,16.70
2018-07-10T19:43:47.563Z,16.50
2018-07-10T19:46:24.958Z,16.50
2018-07-10T19:49:04.799Z,16.50
2018-07-10T19:51:42.440Z,16.60
2018-07-10T20:03:06.658Z,16.50
2018-07-10T20:05:58.984Z,16.50
2018-07-10T20:08:50.351Z,16.40
2018-07-10T20:12:52.881Z,16.30
2018-07-10T20:19:49.786Z,16.20
2018-07-10T20:24:43.077Z,16.20
2018-07-10T20:28:09.929Z,16.20
2018-07-10T20:31:24.271Z,16.20
2018-07-10T20:37:37.199Z,16.00
2018-07-10T20:40:34.335Z,16.10
2018-07-10T20:43:29.874Z,16.10
2018-07-10T20:46:12.956Z,16.10
2018-07-10T20:49:05.916Z,16.00
2018-07-10T20:51:54.862Z,16.00
2018-07-10T20:57:35.398Z,15.80
2018-07-10T21:00:12.456Z,15.80
2018-07-10T21:05:16.194Z,15.90
2018-07-10T21:07:54.974Z,15.90
2018-07-10T21:10:40.035Z,15.90
2018-07-10T21:13:16.291Z,15.80
2018-07-10T21:15:58.401Z,15.80
2018-07-10T21:18:40.134Z,15.80
2018-07-10T21:21:23.611Z,15.70
2018-07-10T21:24:04.623Z,15.80
2018-07-10T21:27:01.582Z,15.80
2018-07-10T21:29:43.115Z,15.80
2018-07-10T21:33:19.521Z,15.70
2018-07-10T21:36:04.064Z,15.70
2018-07-10T21:38:45.017Z,15.80
2018-07-10T21:44:03.092Z,15.90
2018-07-10T21:48:42.058Z,15.80
2018-07-10T21:51:14.350Z,15.70
2018-07-10T21:53:46.374Z,15.70
2018-07-10T21:56:18.795Z,15.60
2018-07-10T21:58:51.386Z,15.60
2018-07-10T22:01:48.561Z,15.40
2018-07-10T22:04:21.837Z,15.40
2018-07-10T22:06:55.898Z,15.40
2018-07-10T22:09:33.552Z,15.40
2018-07-10T22:12:12.532Z,15.30
2018-07-10T22:14:44.995Z,15.30
2018-07-10T22:17:26.281Z,15.20
2018-07-10T22:22:32.156Z,15.20
2018-07-10T22:25:06.946Z,15.20
2018-07-10T22:27:43.482Z,15.20
2018-07-10T22:30:23.450Z,15.10
2018-07-10T22:38:02.538Z,15.10
2018-07-10T22:40:34.582Z,15.10
2018-07-10T22:43:06.332Z,15.10
2018-07-10T22:45:38.826Z,15.00
2018-07-10T22:48:10.828Z,15.00
2018-07-10T22:50:43.345Z,14.90
2018-07-10T22:53:16.055Z,14.90
2018-07-10T22:55:48.096Z,14.90
2018-07-10T22:58:20.065Z,14.90
2018-07-10T23:03:25.877Z,14.90
2018-07-10T23:05:58.717Z,14.90
2018-07-10T23:08:33.107Z,14.90
2018-07-10T23:11:07.342Z,14.80
2018-07-10T23:16:11.599Z,14.70
2018-07-10T23:18:44.754Z,14.70
2018-07-10T23:21:19.889Z,14.70
2018-07-10T23:23:52.021Z,14.80
2018-07-10T23:26:23.835Z,14.90
2018-07-10T23:28:55.838Z,15.00
2018-07-10T23:31:29.890Z,15.00
2018-07-10T23:34:10.288Z,14.90
2018-07-10T23:36:42.641Z,14.90
2018-07-10T23:39:16.726Z,14.90
2018-07-10T23:42:51.698Z,14.90
2018-07-10T23:45:25.226Z,15.00
2018-07-10T23:48:03.931Z,15.00
2018-07-10T23:50:36.198Z,15.10
2018-07-10T23:54:11.514Z,15.10
2018-07-10T23:56:43.718Z,15.10
2018-07-10T23:59:15.427Z,15.00
